sensor_id;sensor_type;location;lat;lon;timestamp;P1;durP1;ratioP1;P2;durP2;ratioP2
18159;SDS011;9205;52.032;4.314;2023-08-12T00:02:34;5.20;;;2.57;;
18159;SDS011;9205;52.032;4.314;2023-08-12T00:05:01;7.20;;;2.33;;
18159;SDS011;9205;52.032;4.314;2023-08-12T00:07:32;6.07;;;1.90;;
18159;SDS011;9205;52.032;4.314;2023-08-12T00:10:00;3.97;;;1.90;;
18159;SDS011;9205;52.032;4.314;2023-08-12T00:12:29;5.90;;;2.00;;
18159;SDS011;9205;52.032;4.314;2023-08-12T00:14:58;2.77;;;1.80;;
18159;SDS011;9205;52.032;4.314;2023-08-12T00:17:25;4.20;;;1.67;;
18159;SDS011;9205;52.032;4.314;2023-08-12T00:19:52;6.53;;;2.07;;
18159;SDS011;9205;52.032;4.314;2023-08-12T00:22:20;5.20;;;1.80;;
18159;SDS011;9205;52.032;4.314;2023-08-12T00:24:50;6.60;;;2.10;;
18159;SDS011;9205;52.032;4.314;2023-08-12T00:27:17;6.27;;;2.13;;
18159;SDS011;9205;52.032;4.314;2023-08-12T00:29:45;3.33;;;2.20;;
18159;SDS011;9205;52.032;4.314;2023-08-12T00:32:13;4.33;;;1.90;;
18159;SDS011;9205;52.032;4.314;2023-08-12T00:34:41;3.70;;;2.40;;
18159;SDS011;9205;52.032;4.314;2023-08-12T00:37:08;4.00;;;2.10;;
18159;SDS011;9205;52.032;4.314;2023-08-12T00:39:36;6.27;;;2.23;;
18159;SDS011;9205;52.032;4.314;2023-08-12T00:42:05;5.90;;;1.90;;
18159;SDS011;9205;52.032;4.314;2023-08-12T00:44:33;4.27;;;2.00;;
18159;SDS011;9205;52.032;4.314;2023-08-12T00:47:01;4.70;;;2.10;;
18159;SDS011;9205;52.032;4.314;2023-08-12T00:49:28;9.30;;;2.73;;
18159;SDS011;9205;52.032;4.314;2023-08-12T00:51:57;4.17;;;2.50;;
18159;SDS011;9205;52.032;4.314;2023-08-12T00:54:26;7.00;;;2.53;;
18159;SDS011;9205;52.032;4.314;2023-08-12T00:56:55;6.57;;;2.70;;
18159;SDS011;9205;52.032;4.314;2023-08-12T00:59:23;5.30;;;2.50;;
18159;SDS011;9205;52.032;4.314;2023-08-12T01:01:52;7.37;;;2.80;;
18159;SDS011;9205;52.032;4.314;2023-08-12T01:04:19;7.10;;;2.50;;
18159;SDS011;9205;52.032;4.314;2023-08-12T01:06:46;8.07;;;2.47;;
18159;SDS011;9205;52.032;4.314;2023-08-12T01:09:14;6.70;;;2.60;;
18159;SDS011;9205;52.032;4.314;2023-08-12T01:11:47;3.90;;;2.40;;
18159;SDS011;9205;52.032;4.314;2023-08-12T01:14:27;5.93;;;2.40;;
18159;SDS011;9205;52.032;4.314;2023-08-12T01:17:04;7.17;;;2.87;;
18159;SDS011;9205;52.032;4.314;2023-08-12T01:19:38;4.70;;;2.27;;
18159;SDS011;9205;52.032;4.314;2023-08-12T01:22:08;6.20;;;2.40;;
18159;SDS011;9205;52.032;4.314;2023-08-12T01:24:40;10.33;;;2.77;;
18159;SDS011;9205;52.032;4.314;2023-08-12T01:27:10;5.27;;;2.17;;
18159;SDS011;9205;52.032;4.314;2023-08-12T01:29:41;6.00;;;2.30;;
18159;SDS011;9205;52.032;4.314;2023-08-12T01:32:13;6.67;;;2.30;;
18159;SDS011;9205;52.032;4.314;2023-08-12T01:34:53;11.40;;;2.37;;
18159;SDS011;9205;52.032;4.314;2023-08-12T01:37:29;4.27;;;2.20;;
18159;SDS011;9205;52.032;4.314;2023-08-12T01:40:02;7.20;;;2.40;;
18159;SDS011;9205;52.032;4.314;2023-08-12T01:42:32;7.57;;;2.63;;
18159;SDS011;9205;52.032;4.314;2023-08-12T01:45:01;3.93;;;2.37;;
18159;SDS011;9205;52.032;4.314;2023-08-12T01:47:28;4.80;;;2.20;;
18159;SDS011;9205;52.032;4.314;2023-08-12T01:49:56;4.73;;;2.40;;
18159;SDS011;9205;52.032;4.314;2023-08-12T01:52:23;5.00;;;2.50;;
18159;SDS011;9205;52.032;4.314;2023-08-12T01:54:50;4.13;;;2.00;;
18159;SDS011;9205;52.032;4.314;2023-08-12T01:57:19;3.77;;;1.83;;
18159;SDS011;9205;52.032;4.314;2023-08-12T01:59:46;6.47;;;2.17;;
18159;SDS011;9205;52.032;4.314;2023-08-12T02:02:13;6.97;;;2.33;;
18159;SDS011;9205;52.032;4.314;2023-08-12T02:04:41;4.30;;;2.03;;
18159;SDS011;9205;52.032;4.314;2023-08-12T02:07:09;5.53;;;2.20;;
18159;SDS011;9205;52.032;4.314;2023-08-12T02:09:36;5.10;;;2.03;;
18159;SDS011;9205;52.032;4.314;2023-08-12T02:12:04;5.43;;;2.27;;
18159;SDS011;9205;52.032;4.314;2023-08-12T02:14:34;5.13;;;2.50;;
18159;SDS011;9205;52.032;4.314;2023-08-12T02:17:02;4.73;;;2.77;;
18159;SDS011;9205;52.032;4.314;2023-08-12T02:19:30;4.57;;;2.50;;
18159;SDS011;9205;52.032;4.314;2023-08-12T02:21:58;6.37;;;2.60;;
18159;SDS011;9205;52.032;4.314;2023-08-12T02:24:26;6.30;;;2.80;;
18159;SDS011;9205;52.032;4.314;2023-08-12T02:26:54;7.80;;;2.80;;
18159;SDS011;9205;52.032;4.314;2023-08-12T02:29:21;5.97;;;2.70;;
18159;SDS011;9205;52.032;4.314;2023-08-12T02:31:50;6.70;;;2.87;;
18159;SDS011;9205;52.032;4.314;2023-08-12T02:34:19;7.77;;;3.20;;
18159;SDS011;9205;52.032;4.314;2023-08-12T02:36:46;9.80;;;3.20;;
18159;SDS011;9205;52.032;4.314;2023-08-12T02:39:13;4.50;;;2.87;;
18159;SDS011;9205;52.032;4.314;2023-08-12T02:41:40;6.40;;;3.20;;
18159;SDS011;9205;52.032;4.314;2023-08-12T02:44:08;10.73;;;3.60;;
18159;SDS011;9205;52.032;4.314;2023-08-12T02:46:35;6.20;;;3.27;;
18159;SDS011;9205;52.032;4.314;2023-08-12T02:49:04;9.27;;;3.60;;
18159;SDS011;9205;52.032;4.314;2023-08-12T02:51:31;5.63;;;3.40;;
18159;SDS011;9205;52.032;4.314;2023-08-12T02:53:59;6.30;;;3.30;;
18159;SDS011;9205;52.032;4.314;2023-08-12T02:56:26;8.97;;;3.50;;
18159;SDS011;9205;52.032;4.314;2023-08-12T02:58:53;7.67;;;3.70;;
18159;SDS011;9205;52.032;4.314;2023-08-12T03:01:20;7.93;;;4.10;;
18159;SDS011;9205;52.032;4.314;2023-08-12T03:03:48;6.97;;;3.70;;
18159;SDS011;9205;52.032;4.314;2023-08-12T03:06:17;11.43;;;3.83;;
18159;SDS011;9205;52.032;4.314;2023-08-12T03:08:44;8.97;;;3.93;;
18159;SDS011;9205;52.032;4.314;2023-08-12T03:11:11;7.10;;;3.53;;
18159;SDS011;9205;52.032;4.314;2023-08-12T03:13:38;7.33;;;3.73;;
18159;SDS011;9205;52.032;4.314;2023-08-12T03:16:10;5.50;;;3.87;;
18159;SDS011;9205;52.032;4.314;2023-08-12T03:18:41;8.43;;;4.13;;
18159;SDS011;9205;52.032;4.314;2023-08-12T03:21:09;7.77;;;3.97;;
18159;SDS011;9205;52.032;4.314;2023-08-12T03:23:40;10.30;;;4.33;;
18159;SDS011;9205;52.032;4.314;2023-08-12T03:26:09;7.13;;;3.63;;
18159;SDS011;9205;52.032;4.314;2023-08-12T03:28:36;9.50;;;4.70;;
18159;SDS011;9205;52.032;4.314;2023-08-12T03:31:04;9.30;;;4.33;;
18159;SDS011;9205;52.032;4.314;2023-08-12T03:33:33;6.90;;;3.50;;
18159;SDS011;9205;52.032;4.314;2023-08-12T03:36:02;10.87;;;5.33;;
18159;SDS011;9205;52.032;4.314;2023-08-12T03:38:30;8.47;;;4.50;;
18159;SDS011;9205;52.032;4.314;2023-08-12T03:40:59;10.23;;;5.40;;
18159;SDS011;9205;52.032;4.314;2023-08-12T03:43:26;10.00;;;5.10;;
18159;SDS011;9205;52.032;4.314;2023-08-12T03:45:53;7.77;;;5.23;;
18159;SDS011;9205;52.032;4.314;2023-08-12T03:48:22;8.67;;;5.40;;
18159;SDS011;9205;52.032;4.314;2023-08-12T03:50:49;10.73;;;5.90;;
18159;SDS011;9205;52.032;4.314;2023-08-12T03:53:16;9.00;;;5.47;;
18159;SDS011;9205;52.032;4.314;2023-08-12T03:55:44;9.57;;;6.23;;
18159;SDS011;9205;52.032;4.314;2023-08-12T03:58:15;9.90;;;6.30;;
18159;SDS011;9205;52.032;4.314;2023-08-12T04:00:43;13.10;;;6.37;;
18159;SDS011;9205;52.032;4.314;2023-08-12T04:03:13;11.03;;;5.80;;
18159;SDS011;9205;52.032;4.314;2023-08-12T04:05:46;11.27;;;6.30;;
18159;SDS011;9205;52.032;4.314;2023-08-12T04:08:17;12.27;;;6.47;;
18159;SDS011;9205;52.032;4.314;2023-08-12T04:10:47;10.53;;;5.97;;
18159;SDS011;9205;52.032;4.314;2023-08-12T04:13:16;12.07;;;6.23;;
18159;SDS011;9205;52.032;4.314;2023-08-12T04:15:47;10.27;;;5.77;;
18159;SDS011;9205;52.032;4.314;2023-08-12T04:18:16;11.93;;;5.93;;
18159;SDS011;9205;52.032;4.314;2023-08-12T04:20:44;10.57;;;6.07;;
18159;SDS011;9205;52.032;4.314;2023-08-12T04:23:12;11.63;;;6.10;;
18159;SDS011;9205;52.032;4.314;2023-08-12T04:25:39;11.47;;;6.33;;
18159;SDS011;9205;52.032;4.314;2023-08-12T04:28:09;11.63;;;6.30;;
18159;SDS011;9205;52.032;4.314;2023-08-12T04:30:41;9.73;;;6.10;;
18159;SDS011;9205;52.032;4.314;2023-08-12T04:33:09;11.67;;;6.10;;
18159;SDS011;9205;52.032;4.314;2023-08-12T04:35:36;14.27;;;6.53;;
18159;SDS011;9205;52.032;4.314;2023-08-12T04:38:03;12.80;;;6.97;;
18159;SDS011;9205;52.032;4.314;2023-08-12T04:40:31;16.43;;;6.67;;
18159;SDS011;9205;52.032;4.314;2023-08-12T04:42:59;19.20;;;7.00;;
18159;SDS011;9205;52.032;4.314;2023-08-12T04:45:27;10.10;;;6.33;;
18159;SDS011;9205;52.032;4.314;2023-08-12T04:47:56;15.13;;;6.50;;
18159;SDS011;9205;52.032;4.314;2023-08-12T04:50:25;12.83;;;6.80;;
18159;SDS011;9205;52.032;4.314;2023-08-12T04:52:56;13.37;;;7.20;;
18159;SDS011;9205;52.032;4.314;2023-08-12T04:55:24;12.00;;;6.90;;
18159;SDS011;9205;52.032;4.314;2023-08-12T04:57:52;16.83;;;8.03;;
18159;SDS011;9205;52.032;4.314;2023-08-12T05:00:19;15.83;;;7.83;;
18159;SDS011;9205;52.032;4.314;2023-08-12T05:02:47;19.57;;;8.83;;
18159;SDS011;9205;52.032;4.314;2023-08-12T05:05:17;19.10;;;10.00;;
18159;SDS011;9205;52.032;4.314;2023-08-12T05:07:44;23.90;;;9.13;;
18159;SDS011;9205;52.032;4.314;2023-08-12T05:10:14;20.03;;;9.50;;
18159;SDS011;9205;52.032;4.314;2023-08-12T05:12:42;19.67;;;9.67;;
18159;SDS011;9205;52.032;4.314;2023-08-12T05:15:09;19.27;;;9.40;;
18159;SDS011;9205;52.032;4.314;2023-08-12T05:17:37;15.93;;;8.53;;
18159;SDS011;9205;52.032;4.314;2023-08-12T05:20:07;18.33;;;9.83;;
18159;SDS011;9205;52.032;4.314;2023-08-12T05:22:37;18.27;;;9.83;;
18159;SDS011;9205;52.032;4.314;2023-08-12T05:25:05;19.77;;;9.37;;
18159;SDS011;9205;52.032;4.314;2023-08-12T05:27:33;15.07;;;8.37;;
18159;SDS011;9205;52.032;4.314;2023-08-12T05:30:00;15.27;;;8.77;;
18159;SDS011;9205;52.032;4.314;2023-08-12T05:32:27;16.80;;;8.50;;
18159;SDS011;9205;52.032;4.314;2023-08-12T05:34:54;17.23;;;8.47;;
18159;SDS011;9205;52.032;4.314;2023-08-12T05:37:22;13.23;;;8.00;;
18159;SDS011;9205;52.032;4.314;2023-08-12T05:39:50;16.60;;;8.60;;
18159;SDS011;9205;52.032;4.314;2023-08-12T05:42:17;15.00;;;7.40;;
18159;SDS011;9205;52.032;4.314;2023-08-12T05:44:45;15.10;;;7.80;;
18159;SDS011;9205;52.032;4.314;2023-08-12T05:47:12;14.97;;;7.33;;
18159;SDS011;9205;52.032;4.314;2023-08-12T05:49:39;11.30;;;6.77;;
18159;SDS011;9205;52.032;4.314;2023-08-12T05:52:07;11.97;;;6.93;;
18159;SDS011;9205;52.032;4.314;2023-08-12T05:54:34;13.17;;;6.90;;
18159;SDS011;9205;52.032;4.314;2023-08-12T05:57:03;11.73;;;6.90;;
18159;SDS011;9205;52.032;4.314;2023-08-12T05:59:31;12.07;;;7.37;;
18159;SDS011;9205;52.032;4.314;2023-08-12T06:01:58;12.90;;;6.80;;
18159;SDS011;9205;52.032;4.314;2023-08-12T06:04:25;11.60;;;7.53;;
18159;SDS011;9205;52.032;4.314;2023-08-12T06:06:52;12.00;;;7.47;;
18159;SDS011;9205;52.032;4.314;2023-08-12T06:09:19;9.60;;;6.23;;
18159;SDS011;9205;52.032;4.314;2023-08-12T06:11:47;13.77;;;7.13;;
18159;SDS011;9205;52.032;4.314;2023-08-12T06:14:16;11.47;;;7.00;;
18159;SDS011;9205;52.032;4.314;2023-08-12T06:16:43;13.60;;;7.30;;
18159;SDS011;9205;52.032;4.314;2023-08-12T06:19:10;14.60;;;7.07;;
18159;SDS011;9205;52.032;4.314;2023-08-12T06:21:38;11.43;;;6.83;;
18159;SDS011;9205;52.032;4.314;2023-08-12T06:24:05;11.20;;;6.50;;
18159;SDS011;9205;52.032;4.314;2023-08-12T06:26:33;9.60;;;6.03;;
18159;SDS011;9205;52.032;4.314;2023-08-12T06:29:00;9.63;;;6.27;;
18159;SDS011;9205;52.032;4.314;2023-08-12T06:31:29;10.20;;;6.07;;
18159;SDS011;9205;52.032;4.314;2023-08-12T06:33:56;9.90;;;5.83;;
18159;SDS011;9205;52.032;4.314;2023-08-12T06:36:23;9.30;;;5.83;;
18159;SDS011;9205;52.032;4.314;2023-08-12T06:38:50;9.83;;;6.73;;
18159;SDS011;9205;52.032;4.314;2023-08-12T06:41:17;9.73;;;5.87;;
18159;SDS011;9205;52.032;4.314;2023-08-12T06:43:45;10.60;;;4.50;;
18159;SDS011;9205;52.032;4.314;2023-08-12T06:46:12;6.93;;;2.90;;
18159;SDS011;9205;52.032;4.314;2023-08-12T06:48:40;4.03;;;2.00;;
18159;SDS011;9205;52.032;4.314;2023-08-12T06:51:07;3.93;;;1.70;;
18159;SDS011;9205;52.032;4.314;2023-08-12T06:53:36;5.87;;;1.60;;
18159;SDS011;9205;52.032;4.314;2023-08-12T06:56:04;3.00;;;1.50;;
18159;SDS011;9205;52.032;4.314;2023-08-12T06:58:32;8.93;;;1.80;;
18159;SDS011;9205;52.032;4.314;2023-08-12T07:00:59;4.20;;;1.60;;
18159;SDS011;9205;52.032;4.314;2023-08-12T07:03:26;5.00;;;1.70;;
18159;SDS011;9205;52.032;4.314;2023-08-12T07:05:54;5.07;;;1.50;;
18159;SDS011;9205;52.032;4.314;2023-08-12T07:08:22;3.53;;;1.23;;
18159;SDS011;9205;52.032;4.314;2023-08-12T07:10:49;2.10;;;1.40;;
18159;SDS011;9205;52.032;4.314;2023-08-12T07:13:16;2.43;;;1.30;;
18159;SDS011;9205;52.032;4.314;2023-08-12T07:15:43;3.27;;;1.33;;
18159;SDS011;9205;52.032;4.314;2023-08-12T07:18:11;4.90;;;1.47;;
18159;SDS011;9205;52.032;4.314;2023-08-12T07:20:38;4.20;;;1.30;;
18159;SDS011;9205;52.032;4.314;2023-08-12T07:23:06;1.63;;;1.13;;
18159;SDS011;9205;52.032;4.314;2023-08-12T07:25:33;2.10;;;1.23;;
18159;SDS011;9205;52.032;4.314;2023-08-12T07:28:01;4.83;;;1.37;;
18159;SDS011;9205;52.032;4.314;2023-08-12T07:30:28;3.23;;;1.20;;
18159;SDS011;9205;52.032;4.314;2023-08-12T07:32:55;2.37;;;1.23;;
18159;SDS011;9205;52.032;4.314;2023-08-12T07:35:22;4.90;;;1.40;;
18159;SDS011;9205;52.032;4.314;2023-08-12T07:37:49;4.83;;;1.33;;
18159;SDS011;9205;52.032;4.314;2023-08-12T07:40:18;5.30;;;1.50;;
18159;SDS011;9205;52.032;4.314;2023-08-12T07:42:45;3.80;;;1.17;;
18159;SDS011;9205;52.032;4.314;2023-08-12T07:45:13;8.57;;;1.43;;
18159;SDS011;9205;52.032;4.314;2023-08-12T07:47:40;2.93;;;1.30;;
18159;SDS011;9205;52.032;4.314;2023-08-12T07:50:07;5.27;;;1.80;;
18159;SDS011;9205;52.032;4.314;2023-08-12T07:52:36;4.17;;;1.47;;
18159;SDS011;9205;52.032;4.314;2023-08-12T07:55:03;3.63;;;1.50;;
18159;SDS011;9205;52.032;4.314;2023-08-12T07:57:33;4.40;;;1.87;;
18159;SDS011;9205;52.032;4.314;2023-08-12T08:00:00;3.57;;;1.30;;
18159;SDS011;9205;52.032;4.314;2023-08-12T08:02:30;3.37;;;1.50;;
18159;SDS011;9205;52.032;4.314;2023-08-12T08:04:57;6.27;;;1.40;;
18159;SDS011;9205;52.032;4.314;2023-08-12T08:07:24;3.30;;;1.13;;
18159;SDS011;9205;52.032;4.314;2023-08-12T08:09:51;4.93;;;1.40;;
18159;SDS011;9205;52.032;4.314;2023-08-12T08:12:19;7.57;;;2.03;;
18159;SDS011;9205;52.032;4.314;2023-08-12T08:14:47;6.00;;;1.50;;
18159;SDS011;9205;52.032;4.314;2023-08-12T08:17:18;5.30;;;1.30;;
18159;SDS011;9205;52.032;4.314;2023-08-12T08:19:45;1.87;;;1.33;;
18159;SDS011;9205;52.032;4.314;2023-08-12T08:22:12;4.87;;;1.60;;
18159;SDS011;9205;52.032;4.314;2023-08-12T08:24:39;4.80;;;1.50;;
18159;SDS011;9205;52.032;4.314;2023-08-12T08:27:07;5.97;;;1.30;;
18159;SDS011;9205;52.032;4.314;2023-08-12T08:29:34;7.23;;;1.57;;
18159;SDS011;9205;52.032;4.314;2023-08-12T08:32:03;2.67;;;1.20;;
18159;SDS011;9205;52.032;4.314;2023-08-12T08:34:30;3.50;;;1.40;;
18159;SDS011;9205;52.032;4.314;2023-08-12T08:36:58;7.07;;;1.70;;
18159;SDS011;9205;52.032;4.314;2023-08-12T08:39:28;7.47;;;1.70;;
18159;SDS011;9205;52.032;4.314;2023-08-12T08:41:56;5.80;;;1.63;;
18159;SDS011;9205;52.032;4.314;2023-08-12T08:44:25;3.57;;;1.47;;
18159;SDS011;9205;52.032;4.314;2023-08-12T08:46:57;9.47;;;1.50;;
18159;SDS011;9205;52.032;4.314;2023-08-12T08:49:27;5.90;;;1.60;;
18159;SDS011;9205;52.032;4.314;2023-08-12T08:51:57;5.23;;;1.60;;
18159;SDS011;9205;52.032;4.314;2023-08-12T08:54:26;3.67;;;1.20;;
18159;SDS011;9205;52.032;4.314;2023-08-12T08:56:54;5.00;;;1.20;;
18159;SDS011;9205;52.032;4.314;2023-08-12T08:59:22;2.77;;;1.30;;
18159;SDS011;9205;52.032;4.314;2023-08-12T09:01:49;4.20;;;1.40;;
18159;SDS011;9205;52.032;4.314;2023-08-12T09:04:19;6.47;;;1.40;;
18159;SDS011;9205;52.032;4.314;2023-08-12T09:06:50;7.80;;;1.37;;
18159;SDS011;9205;52.032;4.314;2023-08-12T09:09:19;3.07;;;1.20;;
18159;SDS011;9205;52.032;4.314;2023-08-12T09:11:48;2.53;;;1.20;;
18159;SDS011;9205;52.032;4.314;2023-08-12T09:14:18;5.47;;;1.33;;
18159;SDS011;9205;52.032;4.314;2023-08-12T09:16:46;4.20;;;1.60;;
18159;SDS011;9205;52.032;4.314;2023-08-12T09:19:14;3.20;;;1.17;;
18159;SDS011;9205;52.032;4.314;2023-08-12T09:21:41;6.33;;;1.70;;
18159;SDS011;9205;52.032;4.314;2023-08-12T09:24:10;3.17;;;1.40;;
18159;SDS011;9205;52.032;4.314;2023-08-12T09:26:38;5.10;;;1.27;;
18159;SDS011;9205;52.032;4.314;2023-08-12T09:29:09;2.47;;;1.13;;
18159;SDS011;9205;52.032;4.314;2023-08-12T09:31:37;5.67;;;1.33;;
18159;SDS011;9205;52.032;4.314;2023-08-12T09:34:04;5.30;;;1.57;;
18159;SDS011;9205;52.032;4.314;2023-08-12T09:36:33;4.87;;;1.30;;
18159;SDS011;9205;52.032;4.314;2023-08-12T09:39:05;5.53;;;1.37;;
18159;SDS011;9205;52.032;4.314;2023-08-12T09:41:35;7.47;;;1.60;;
18159;SDS011;9205;52.032;4.314;2023-08-12T09:44:04;6.10;;;1.20;;
18159;SDS011;9205;52.032;4.314;2023-08-12T09:46:32;5.53;;;1.53;;
18159;SDS011;9205;52.032;4.314;2023-08-12T09:49:00;4.27;;;1.27;;
18159;SDS011;9205;52.032;4.314;2023-08-12T09:51:33;8.67;;;1.80;;
18159;SDS011;9205;52.032;4.314;2023-08-12T09:54:02;9.60;;;1.67;;
18159;SDS011;9205;52.032;4.314;2023-08-12T09:56:31;6.10;;;1.67;;
18159;SDS011;9205;52.032;4.314;2023-08-12T09:59:05;7.77;;;1.70;;
18159;SDS011;9205;52.032;4.314;2023-08-12T10:01:34;7.70;;;1.47;;
18159;SDS011;9205;52.032;4.314;2023-08-12T10:04:03;5.93;;;1.43;;
18159;SDS011;9205;52.032;4.314;2023-08-12T10:06:38;4.83;;;1.30;;
18159;SDS011;9205;52.032;4.314;2023-08-12T10:09:06;3.77;;;1.40;;
18159;SDS011;9205;52.032;4.314;2023-08-12T10:11:37;6.47;;;1.90;;
18159;SDS011;9205;52.032;4.314;2023-08-12T10:14:06;7.63;;;1.80;;
18159;SDS011;9205;52.032;4.314;2023-08-12T10:16:35;6.83;;;1.77;;
18159;SDS011;9205;52.032;4.314;2023-08-12T10:19:04;5.53;;;1.77;;
18159;SDS011;9205;52.032;4.314;2023-08-12T10:21:32;6.37;;;1.37;;
18159;SDS011;9205;52.032;4.314;2023-08-12T10:24:01;5.03;;;1.60;;
18159;SDS011;9205;52.032;4.314;2023-08-12T10:26:32;7.43;;;1.83;;
18159;SDS011;9205;52.032;4.314;2023-08-12T10:29:01;13.27;;;1.67;;
18159;SDS011;9205;52.032;4.314;2023-08-12T10:31:29;3.13;;;1.43;;
18159;SDS011;9205;52.032;4.314;2023-08-12T10:33:57;6.23;;;1.60;;
18159;SDS011;9205;52.032;4.314;2023-08-12T10:36:25;4.67;;;1.70;;
18159;SDS011;9205;52.032;4.314;2023-08-12T10:38:53;10.77;;;2.33;;
18159;SDS011;9205;52.032;4.314;2023-08-12T10:41:23;6.67;;;1.53;;
18159;SDS011;9205;52.032;4.314;2023-08-12T10:43:53;3.97;;;1.67;;
18159;SDS011;9205;52.032;4.314;2023-08-12T10:46:24;6.33;;;1.73;;
18159;SDS011;9205;52.032;4.314;2023-08-12T10:49:02;6.40;;;1.77;;
18159;SDS011;9205;52.032;4.314;2023-08-12T10:51:39;4.60;;;1.63;;
18159;SDS011;9205;52.032;4.314;2023-08-12T10:54:15;4.30;;;1.70;;
18159;SDS011;9205;52.032;4.314;2023-08-12T10:57:07;7.40;;;1.67;;
18159;SDS011;9205;52.032;4.314;2023-08-12T10:59:48;4.00;;;2.00;;
18159;SDS011;9205;52.032;4.314;2023-08-12T11:02:26;8.07;;;1.80;;
18159;SDS011;9205;52.032;4.314;2023-08-12T11:05:00;5.80;;;1.90;;
18159;SDS011;9205;52.032;4.314;2023-08-12T11:07:33;5.30;;;1.80;;
18159;SDS011;9205;52.032;4.314;2023-08-12T11:10:05;5.13;;;1.60;;
18159;SDS011;9205;52.032;4.314;2023-08-12T11:12:38;9.27;;;1.90;;
18159;SDS011;9205;52.032;4.314;2023-08-12T11:15:07;5.83;;;2.10;;
18159;SDS011;9205;52.032;4.314;2023-08-12T11:17:38;7.30;;;1.80;;
18159;SDS011;9205;52.032;4.314;2023-08-12T11:20:07;7.17;;;1.80;;
18159;SDS011;9205;52.032;4.314;2023-08-12T11:22:37;3.33;;;1.50;;
18159;SDS011;9205;52.032;4.314;2023-08-12T11:25:06;6.03;;;2.00;;
18159;SDS011;9205;52.032;4.314;2023-08-12T11:27:36;6.97;;;2.13;;
18159;SDS011;9205;52.032;4.314;2023-08-12T11:30:06;5.30;;;1.60;;
18159;SDS011;9205;52.032;4.314;2023-08-12T11:32:35;8.03;;;1.63;;
18159;SDS011;9205;52.032;4.314;2023-08-12T11:35:06;6.60;;;1.83;;
18159;SDS011;9205;52.032;4.314;2023-08-12T11:37:36;8.40;;;1.80;;
18159;SDS011;9205;52.032;4.314;2023-08-12T11:40:05;3.80;;;1.40;;
18159;SDS011;9205;52.032;4.314;2023-08-12T11:42:35;7.60;;;2.07;;
18159;SDS011;9205;52.032;4.314;2023-08-12T11:45:03;4.65;;;1.73;;
18159;SDS011;9205;52.032;4.314;2023-08-12T11:47:32;4.30;;;1.37;;
18159;SDS011;9205;52.032;4.314;2023-08-12T11:50:02;9.25;;;2.05;;
18159;SDS011;9205;52.032;4.314;2023-08-12T11:52:31;5.83;;;1.50;;
18159;SDS011;9205;52.032;4.314;2023-08-12T11:54:59;4.78;;;1.50;;
18159;SDS011;9205;52.032;4.314;2023-08-12T11:57:26;7.15;;;1.63;;
18159;SDS011;9205;52.032;4.314;2023-08-12T11:59:58;5.25;;;1.42;;
18159;SDS011;9205;52.032;4.314;2023-08-12T12:02:25;6.83;;;1.40;;
18159;SDS011;9205;52.032;4.314;2023-08-12T12:04:53;5.80;;;1.55;;
18159;SDS011;9205;52.032;4.314;2023-08-12T12:07:23;9.82;;;1.90;;
18159;SDS011;9205;52.032;4.314;2023-08-12T12:09:52;5.60;;;1.42;;
18159;SDS011;9205;52.032;4.314;2023-08-12T12:12:24;6.85;;;1.63;;
18159;SDS011;9205;52.032;4.314;2023-08-12T12:14:51;4.93;;;1.30;;
18159;SDS011;9205;52.032;4.314;2023-08-12T12:17:20;5.38;;;1.77;;
18159;SDS011;9205;52.032;4.314;2023-08-12T12:19:51;5.82;;;1.40;;
18159;SDS011;9205;52.032;4.314;2023-08-12T12:22:27;7.97;;;1.88;;
18159;SDS011;9205;52.032;4.314;2023-08-12T12:24:57;4.90;;;1.55;;
18159;SDS011;9205;52.032;4.314;2023-08-12T12:27:26;5.55;;;1.70;;
18159;SDS011;9205;52.032;4.314;2023-08-12T12:29:54;6.18;;;1.70;;
18159;SDS011;9205;52.032;4.314;2023-08-12T12:32:21;4.15;;;1.50;;
18159;SDS011;9205;52.032;4.314;2023-08-12T12:34:48;5.38;;;1.50;;
18159;SDS011;9205;52.032;4.314;2023-08-12T12:37:16;9.38;;;1.90;;
18159;SDS011;9205;52.032;4.314;2023-08-12T12:39:45;5.82;;;1.70;;
18159;SDS011;9205;52.032;4.314;2023-08-12T12:42:12;4.00;;;1.50;;
18159;SDS011;9205;52.032;4.314;2023-08-12T12:44:40;4.07;;;1.63;;
18159;SDS011;9205;52.032;4.314;2023-08-12T12:47:07;7.68;;;2.03;;
18159;SDS011;9205;52.032;4.314;2023-08-12T12:49:36;5.70;;;1.73;;
18159;SDS011;9205;52.032;4.314;2023-08-12T12:52:03;6.10;;;1.60;;
18159;SDS011;9205;52.032;4.314;2023-08-12T12:54:30;5.78;;;1.88;;
18159;SDS011;9205;52.032;4.314;2023-08-12T12:56:59;9.65;;;1.90;;
18159;SDS011;9205;52.032;4.314;2023-08-12T12:59:27;7.53;;;1.60;;
18159;SDS011;9205;52.032;4.314;2023-08-12T13:01:54;4.90;;;1.50;;
18159;SDS011;9205;52.032;4.314;2023-08-12T13:04:21;4.30;;;1.50;;
18159;SDS011;9205;52.032;4.314;2023-08-12T13:06:49;5.93;;;1.55;;
18159;SDS011;9205;52.032;4.314;2023-08-12T13:09:16;11.75;;;2.15;;
18159;SDS011;9205;52.032;4.314;2023-08-12T13:11:43;9.20;;;1.77;;
18159;SDS011;9205;52.032;4.314;2023-08-12T13:14:12;10.90;;;1.80;;
18159;SDS011;9205;52.032;4.314;2023-08-12T13:16:39;7.70;;;1.70;;
18159;SDS011;9205;52.032;4.314;2023-08-12T13:19:06;5.90;;;1.77;;
18159;SDS011;9205;52.032;4.314;2023-08-12T13:21:33;8.18;;;1.75;;
18159;SDS011;9205;52.032;4.314;2023-08-12T13:24:00;4.97;;;1.50;;
18159;SDS011;9205;52.032;4.314;2023-08-12T13:26:29;5.03;;;1.35;;
18159;SDS011;9205;52.032;4.314;2023-08-12T13:28:56;7.07;;;1.58;;
18159;SDS011;9205;52.032;4.314;2023-08-12T13:31:25;8.05;;;1.73;;
18159;SDS011;9205;52.032;4.314;2023-08-12T13:33:52;5.55;;;1.63;;
18159;SDS011;9205;52.032;4.314;2023-08-12T13:36:20;6.35;;;1.88;;
18159;SDS011;9205;52.032;4.314;2023-08-12T13:38:47;7.35;;;1.73;;
18159;SDS011;9205;52.032;4.314;2023-08-12T13:41:14;7.80;;;1.73;;
18159;SDS011;9205;52.032;4.314;2023-08-12T13:43:42;6.15;;;1.75;;
18159;SDS011;9205;52.032;4.314;2023-08-12T13:46:09;6.53;;;1.55;;
18159;SDS011;9205;52.032;4.314;2023-08-12T13:48:38;6.00;;;2.00;;
18159;SDS011;9205;52.032;4.314;2023-08-12T13:51:07;7.97;;;2.00;;
18159;SDS011;9205;52.032;4.314;2023-08-12T13:53:35;5.13;;;1.70;;
18159;SDS011;9205;52.032;4.314;2023-08-12T13:56:02;12.20;;;2.15;;
18159;SDS011;9205;52.032;4.314;2023-08-12T13:58:30;4.82;;;1.50;;
18159;SDS011;9205;52.032;4.314;2023-08-12T14:00:57;7.90;;;1.70;;
18159;SDS011;9205;52.032;4.314;2023-08-12T14:03:25;7.18;;;1.65;;
18159;SDS011;9205;52.032;4.314;2023-08-12T14:05:53;8.48;;;1.58;;
18159;SDS011;9205;52.032;4.314;2023-08-12T14:08:21;6.75;;;1.80;;
18159;SDS011;9205;52.032;4.314;2023-08-12T14:10:48;4.22;;;1.27;;
18159;SDS011;9205;52.032;4.314;2023-08-12T14:13:15;7.82;;;1.60;;
18159;SDS011;9205;52.032;4.314;2023-08-12T14:15:43;3.58;;;1.40;;
18159;SDS011;9205;52.032;4.314;2023-08-12T14:18:10;8.63;;;1.52;;
18159;SDS011;9205;52.032;4.314;2023-08-12T14:20:37;5.70;;;1.63;;
18159;SDS011;9205;52.032;4.314;2023-08-12T14:23:06;5.25;;;1.45;;
18159;SDS011;9205;52.032;4.314;2023-08-12T14:25:33;4.85;;;1.50;;
18159;SDS011;9205;52.032;4.314;2023-08-12T14:28:01;5.10;;;1.42;;
18159;SDS011;9205;52.032;4.314;2023-08-12T14:30:28;11.50;;;1.75;;
18159;SDS011;9205;52.032;4.314;2023-08-12T14:32:55;5.47;;;1.65;;
18159;SDS011;9205;52.032;4.314;2023-08-12T14:35:24;7.05;;;1.58;;
18159;SDS011;9205;52.032;4.314;2023-08-12T14:37:51;9.32;;;1.80;;
18159;SDS011;9205;52.032;4.314;2023-08-12T14:40:20;6.55;;;1.45;;
18159;SDS011;9205;52.032;4.314;2023-08-12T14:42:47;9.68;;;1.48;;
18159;SDS011;9205;52.032;4.314;2023-08-12T14:45:14;9.02;;;1.60;;
18159;SDS011;9205;52.032;4.314;2023-08-12T14:47:42;5.45;;;1.42;;
18159;SDS011;9205;52.032;4.314;2023-08-12T14:50:09;6.03;;;1.65;;
18159;SDS011;9205;52.032;4.314;2023-08-12T14:52:36;6.97;;;1.17;;
18159;SDS011;9205;52.032;4.314;2023-08-12T14:55:04;5.65;;;1.20;;
18159;SDS011;9205;52.032;4.314;2023-08-12T14:57:34;8.32;;;1.60;;
18159;SDS011;9205;52.032;4.314;2023-08-12T15:00:01;5.30;;;1.55;;
18159;SDS011;9205;52.032;4.314;2023-08-12T15:02:31;3.88;;;1.40;;
18159;SDS011;9205;52.032;4.314;2023-08-12T15:04:59;6.47;;;1.80;;
18159;SDS011;9205;52.032;4.314;2023-08-12T15:07:27;7.70;;;1.70;;